createdAt,value
2022-10-22T00:04:09.827Z,12.51
2022-10-22T00:09:11.132Z,12.49
2022-10-22T00:14:12.961Z,12.47
2022-10-22T00:19:14.175Z,12.46
2022-10-22T00:24:16.057Z,12.48
2022-10-22T00:29:18.136Z,12.48
2022-10-22T00:34:20.122Z,12.44
2022-10-22T00:39:22.054Z,12.43
2022-10-22T00:44:23.572Z,12.45
2022-10-22T00:49:25.441Z,12.43
2022-10-22T00:54:27.227Z,12.49
2022-10-22T00:59:29.357Z,12.51
2022-10-22T01:04:31.473Z,12.54
2022-10-22T01:09:33.123Z,12.55
2022-10-22T01:14:34.780Z,12.56
2022-10-22T01:19:36.451Z,12.59
2022-10-22T01:24:37.873Z,12.6
2022-10-22T01:29:39.873Z,12.62
2022-10-22T01:34:41.167Z,12.65
2022-10-22T01:40:30.844Z,12.77
2022-10-22T01:44:45.363Z,12.67
2022-10-22T01:49:46.535Z,12.64
2022-10-22T01:55:36.191Z,12.8
2022-10-22T02:01:25.811Z,12.9
2022-10-22T02:04:50.863Z,12.72
2022-10-22T02:09:52.523Z,12.69
2022-10-22T02:15:42.167Z,12.8
2022-10-22T02:19:55.886Z,12.71
2022-10-22T02:24:58.004Z,12.65
2022-10-22T02:29:59.363Z,12.62
2022-10-22T02:35:01.342Z,12.62
2022-10-22T02:40:02.891Z,12.61
2022-10-22T02:45:05.026Z,12.6
2022-10-22T02:50:09.401Z,12.61
2022-10-22T02:55:08.667Z,12.6
2022-10-22T03:00:09.855Z,12.64
2022-10-22T03:05:09.901Z,12.65
2022-10-22T03:10:11.694Z,12.63
2022-10-22T03:15:13.173Z,12.6
2022-10-22T03:20:14.526Z,12.59
2022-10-22T03:25:16.301Z,12.58
2022-10-22T03:30:17.778Z,12.58
2022-10-22T03:35:28.494Z,12.56
2022-10-22T03:40:21.329Z,12.56
2022-10-22T03:45:24.038Z,12.58
2022-10-22T03:50:25.844Z,12.52
2022-10-22T03:55:27.968Z,12.43
2022-10-22T04:00:29.904Z,12.34
2022-10-22T04:05:31.877Z,12.28
2022-10-22T04:10:33.729Z,12.21
2022-10-22T04:15:35.250Z,12.17
2022-10-22T04:20:36.309Z,12.13
2022-10-22T04:25:38.541Z,12.14
2022-10-22T04:30:39.788Z,12.12
2022-10-22T04:35:41.334Z,12.03
2022-10-22T04:40:42.832Z,11.96
2022-10-22T04:45:44.322Z,11.91
2022-10-22T04:50:45.645Z,11.88
2022-10-22T04:55:47.249Z,11.81
2022-10-22T05:00:48.864Z,11.8
2022-10-22T05:05:49.098Z,11.75
2022-10-22T05:10:50.663Z,11.71
2022-10-22T05:15:52.752Z,11.64
2022-10-22T05:20:54.516Z,11.64
2022-10-22T05:25:56.585Z,11.58
2022-10-22T05:30:57.830Z,11.54
2022-10-22T05:36:00.672Z,11.62
2022-10-22T05:41:02.139Z,11.5
2022-10-22T05:46:04.032Z,11.46
2022-10-22T05:51:05.757Z,11.45
2022-10-22T05:56:07.536Z,11.41
2022-10-22T06:01:09.352Z,11.41
2022-10-22T06:06:11.136Z,11.34
2022-10-22T06:11:12.517Z,11.37
2022-10-22T06:16:14.464Z,11.33
2022-10-22T06:21:16.612Z,11.34
2022-10-22T06:26:18.488Z,11.33
2022-10-22T06:31:20.254Z,11.35
2022-10-22T06:36:22.163Z,11.3
2022-10-22T06:41:25.596Z,11.35
2022-10-22T06:46:24.995Z,11.34
2022-10-22T06:51:26.659Z,11.38
2022-10-22T06:56:28.412Z,11.38
2022-10-22T07:01:30.243Z,11.42
2022-10-22T07:06:31.450Z,11.42
2022-10-22T07:11:33.387Z,11.43
2022-10-22T07:16:35.023Z,11.49
2022-10-22T07:51:46.174Z,11.79
2022-10-22T07:56:48.005Z,11.83
2022-10-22T08:21:56.064Z,12.22
2022-10-22T08:31:59.697Z,12.31
2022-10-22T08:42:03.047Z,12.42
2022-10-22T08:47:05.100Z,12.44
2022-10-22T08:52:07.039Z,12.49
2022-10-22T08:57:08.518Z,12.53
2022-10-22T09:02:10.084Z,12.64
2022-10-22T09:07:59.709Z,12.89
2022-10-22T09:12:15.313Z,12.84
2022-10-22T09:17:14.312Z,12.88
2022-10-22T09:22:16.224Z,12.92
2022-10-22T09:27:18.046Z,12.97
2022-10-22T09:32:19.829Z,13.08
2022-10-22T09:37:21.380Z,13.18
2022-10-22T09:42:22.737Z,13.3
2022-10-22T09:47:29.092Z,13.41
2022-10-22T09:52:25.281Z,13.47
2022-10-22T09:57:26.648Z,13.6
2022-10-22T10:02:43.678Z,13.66
2022-10-22T10:07:29.442Z,13.77
2022-10-22T10:12:30.861Z,13.88
2022-10-22T10:17:32.743Z,14.03
2022-10-22T10:23:23.097Z,14.29
2022-10-22T10:27:45.763Z,14.29
2022-10-22T10:32:38.865Z,14.4
2022-10-22T10:37:50.876Z,14.48
2022-10-22T10:42:42.834Z,14.74
2022-10-22T10:47:44.371Z,14.85
2022-10-22T10:52:45.194Z,14.99
2022-10-22T10:57:46.613Z,15.36
2022-10-22T11:02:48.116Z,15.57
2022-10-22T11:07:52.152Z,15.66
2022-10-22T11:12:50.679Z,15.78
2022-10-22T11:17:52.829Z,15.74
2022-10-22T11:23:17.299Z,15.77
2022-10-22T11:27:54.012Z,15.79
2022-10-22T11:32:56.619Z,15.81
2022-10-22T11:37:57.715Z,15.79
2022-10-22T11:42:58.957Z,15.68
2022-10-22T11:48:00.193Z,15.69
2022-10-22T11:53:02.169Z,15.67
2022-10-22T11:58:03.461Z,15.56
2022-10-22T12:03:04.826Z,15.46
2022-10-22T12:03:12.774Z,15.48
2022-10-22T12:08:14.891Z,15.6
2022-10-22T12:13:16.067Z,15.64
2022-10-22T12:18:17.481Z,15.83
2022-10-22T12:23:19.658Z,16.2
2022-10-22T12:28:21.330Z,16.29
2022-10-22T12:33:23.532Z,16.39
2022-10-22T12:38:25.159Z,16.42
2022-10-22T12:43:26.882Z,16.49
2022-10-22T12:48:28.706Z,16.51
2022-10-22T12:53:30.044Z,16.57
2022-10-22T12:58:32.135Z,16.62
2022-10-22T13:03:33.651Z,16.66
2022-10-22T13:08:35.888Z,16.73
2022-10-22T13:13:37.633Z,16.76
2022-10-22T13:18:39.539Z,16.82
2022-10-22T13:23:41.302Z,16.94
2022-10-22T13:28:42.585Z,16.94
2022-10-22T13:33:44.321Z,16.98
2022-10-22T13:38:46.193Z,16.94
2022-10-22T13:43:48.308Z,16.92
2022-10-22T13:48:49.425Z,16.86
2022-10-22T13:53:51.460Z,16.9
2022-10-22T13:58:53.695Z,17.04
2022-10-22T14:03:55.029Z,17.07
2022-10-22T14:08:56.577Z,17.11
2022-10-22T14:13:57.751Z,17.06
2022-10-22T14:18:59.711Z,17.08
2022-10-22T14:24:01.185Z,16.96
2022-10-22T14:29:10.966Z,16.95
2022-10-22T14:34:03.798Z,16.83
2022-10-22T14:39:05.276Z,16.69
2022-10-22T14:44:06.955Z,16.62
2022-10-22T14:49:08.191Z,16.54
2022-10-22T14:54:10.127Z,16.49
2022-10-22T14:59:12.223Z,16.41
2022-10-22T15:04:14.356Z,16.28
2022-10-22T15:10:03.972Z,16.42
2022-10-22T15:15:53.601Z,16.44
2022-10-22T15:19:19.962Z,16.25
2022-10-22T15:24:21.646Z,16.06
2022-10-22T15:29:23.313Z,15.88
2022-10-22T15:34:25.417Z,15.77
2022-10-22T15:39:27.419Z,15.65
2022-10-22T15:44:29.554Z,15.51
2022-10-22T15:49:31.039Z,15.38
2022-10-22T15:54:32.618Z,15.3
2022-10-22T15:59:34.634Z,15.2
2022-10-22T16:04:36.232Z,15.04
2022-10-22T16:09:38.240Z,14.93
2022-10-22T16:14:40.355Z,14.74
2022-10-22T16:19:42.389Z,14.6
2022-10-22T16:24:44.249Z,14.49
2022-10-22T16:29:45.871Z,14.34
2022-10-22T16:34:47.449Z,14.18
2022-10-22T16:39:49.482Z,14.04
2022-10-22T16:44:51.336Z,13.85
2022-10-22T16:49:53.546Z,13.73
2022-10-22T16:54:55.013Z,13.57
2022-10-22T16:59:56.530Z,13.46
2022-10-22T17:04:58.170Z,13.31
2022-10-22T17:10:00.015Z,13.18
2022-10-22T17:15:01.618Z,13
2022-10-22T17:20:03.774Z,12.86
2022-10-22T17:25:05.048Z,12.72
2022-10-22T17:30:06.951Z,12.61
2022-10-22T17:35:08.533Z,12.46
2022-10-22T17:40:10.264Z,12.34
2022-10-22T17:45:12.262Z,12.27
2022-10-22T17:50:14.045Z,12.18
2022-10-22T17:55:16.028Z,12.05
2022-10-22T18:05:19.745Z,11.87
2022-10-22T18:10:21.712Z,11.78
2022-10-22T18:15:23.478Z,11.64
2022-10-22T18:20:25.656Z,11.57
2022-10-22T18:25:27.026Z,11.44
2022-10-22T18:30:28.417Z,11.41
2022-10-22T18:35:30.328Z,11.31
2022-10-22T18:40:31.633Z,11.21
2022-10-22T18:45:33.728Z,11.15
2022-10-22T18:50:35.579Z,11.04
2022-10-22T18:55:37.564Z,10.96
2022-10-22T19:00:39.786Z,10.85
2022-10-22T19:05:41.017Z,10.81
2022-10-22T19:10:43.149Z,10.74
2022-10-22T19:15:44.584Z,10.67
2022-10-22T19:20:46.663Z,10.59
2022-10-22T19:25:47.844Z,10.58
2022-10-22T19:30:49.686Z,10.5
2022-10-22T19:35:51.252Z,10.46
2022-10-22T19:40:53.166Z,10.41
2022-10-22T19:45:54.528Z,10.3
2022-10-22T19:50:56.124Z,10.22
2022-10-22T20:00:59.780Z,10.16
2022-10-22T20:06:01.367Z,10.12
2022-10-22T20:11:02.773Z,10.08
2022-10-22T20:16:04.453Z,9.99
2022-10-22T20:21:06.555Z,9.96
2022-10-22T20:26:56.170Z,10.03
2022-10-22T20:31:09.880Z,9.92
2022-10-22T20:36:11.671Z,9.83
2022-10-22T20:41:13.739Z,9.78
2022-10-22T20:47:03.369Z,9.88
2022-10-22T20:51:17.728Z,9.68
2022-10-22T20:57:07.359Z,9.8
2022-10-22T21:01:20.888Z,9.59
2022-10-22T21:07:10.447Z,9.71
2022-10-22T21:11:23.530Z,9.57
2022-10-22T21:16:24.713Z,9.5
2022-10-22T21:21:26.624Z,9.46
2022-10-22T21:26:28.715Z,9.43
2022-10-22T21:31:29.895Z,9.42
2022-10-22T21:36:31.417Z,9.37
2022-10-22T21:41:33.542Z,9.39
2022-10-22T22:11:59.207Z,9.25
2022-10-22T22:17:34.027Z,9.42
2022-10-22T22:21:47.655Z,9.32
2022-10-22T22:27:37.327Z,9.42
2022-10-22T22:31:50.922Z,9.29
2022-10-22T22:56:59.745Z,9
2022-10-22T23:02:01.430Z,9.02
2022-10-22T23:07:03.481Z,8.96
2022-10-22T23:12:53.113Z,9.12
2022-10-22T23:17:06.927Z,9.01
2022-10-22T23:22:08.831Z,8.95
2022-10-22T23:27:10.129Z,8.89
2022-10-22T23:32:12.189Z,8.89
2022-10-22T23:37:13.990Z,8.85
2022-10-22T23:42:16.066Z,8.8
2022-10-22T23:47:18.224Z,8.79
2022-10-22T23:52:20.090Z,8.75
2022-10-22T23:57:21.295Z,8.66
